Latest Weather Observations for Groote Eylandt Airport

IDD60801

Issued at 5:35 pm CST Friday 29 August 2014 (issued every 30 minutes, with the page automatically refreshed every 10 minutes)

About weather observations | Map of weather stations | Latest weather observations for NT | Other Formats
Station Details ID: 014518 Name: GROOTE EYLANDT AIRPORT Lat: -13.97 Lon: 136.46 Height: 13.7 m
Data from the previous 72 hours. | See also: Recent months at Groote Eylandt Airport
Date/Time
CST
Temp
°C
App
Temp
°C
Dew
Point
Rel
Hum
%
Delta-T
°C
Wind Press
QNH
hPa
Press
MSL
hPa
Rain
since 9 am
mm
Dir
 
Spd
km/h
Gust
km/h
Spd
kts
Gust
kts
29/05:30pm 26.8 24.8 13.9 45 7.7 E 17 24 9 13 1014.0 - 0.0
29/05:00pm 27.8 24.6 10.1 33 9.9 ESE 17 26 9 14 1013.6 - 0.0
29/04:30pm 29.1 26.1 9.3 29 11.0 ESE 15 22 8 12 1013.3 - 0.0
29/04:00pm 29.7 25.5 7.6 25 12.0 E 19 28 10 15 1013.2 - 0.0
29/03:30pm 29.9 25.4 5.9 22 12.7 ESE 19 30 10 16 1013.1 - 0.0
29/03:00pm 30.5 26.7 7.7 24 12.4 ESE 17 30 9 16 1013.1 1013.0 0.0
29/02:30pm 30.7 27.2 7.2 23 12.7 ESE 15 26 8 14 1013.3 - 0.0
29/02:00pm 30.4 25.9 7.0 23 12.6 ESE 20 33 11 18 1013.7 - 0.0
29/01:31pm 30.4 24.1 5.6 21 13.1 E 28 46 15 25 1013.9 - 0.0
29/01:30pm 30.1 24.1 5.4 21 12.9 E 26 46 14 25 1014.0 - 0.0
29/01:00pm 30.4 24.9 7.6 24 12.4 E 26 37 14 20 1014.4 - 0.0
29/12:30pm 29.2 24.1 7.7 26 11.7 E 24 39 13 21 1014.4 - 0.0
29/12:00pm 29.3 24.5 8.9 28 11.3 ESE 24 41 13 22 1014.9 1014.8 0.0
29/11:30am 28.8 25.2 10.0 31 10.6 SE 19 33 10 18 1015.2 - 0.0
29/11:00am 28.3 24.6 10.0 32 10.3 SE 20 37 11 20 1015.6 - 0.0
29/10:48am 28.7 23.3 9.4 30 10.7 E 28 50 15 27 1015.8 - 0.0
29/10:30am 28.2 25.4 11.3 35 9.7 SE 17 28 9 15 1016.0 - 0.0
29/10:00am 27.1 24.4 11.6 38 8.9 SE 17 26 9 14 1016.1 - 0.0
29/09:30am 25.5 23.8 13.7 48 6.9 SSE 15 24 8 13 1016.1 - 0.0
29/09:00am 24.4 24.7 15.9 59 5.2 ESE 9 20 5 11 1016.2 1016.1 0.0
29/08:30am 20.2 22.0 15.4 74 2.8 CALM 0 0 0 0 1016.3 - 0.0
29/08:00am 16.9 18.1 13.8 82 1.8 CALM 0 0 0 0 1015.9 - 0.0
29/07:30am 13.6 14.2 12.0 90 0.9 CALM 0 0 0 0 1015.8 - 0.0
29/07:00am 11.2 11.4 10.4 95 0.4 CALM 0 6 0 3 1015.4 - 0.0
29/06:30am 10.9 9.8 10.0 94 0.5 E 6 7 3 4 1015.1 - 0.0
29/06:00am 11.3 11.5 10.4 94 0.5 SSE 0 0 0 0 1014.6 1014.5 0.0
29/05:30am 11.6 11.8 10.5 93 0.6 CALM 0 0 0 0 1014.2 - 0.0
29/05:00am 12.0 12.3 10.9 93 0.6 CALM 0 0 0 0 1014.1 - 0.0
29/04:30am 12.8 13.3 11.5 92 0.7 CALM 0 6 0 3 1014.0 - 0.0
29/04:00am 12.9 12.1 11.8 93 0.6 ESE 7 9 4 5 1013.7 - 0.0
29/03:30am 13.2 12.4 11.8 91 0.7 SE 7 9 4 5 1013.8 - 0.0
29/03:00am 13.9 13.5 12.3 90 0.9 ESE 6 7 3 4 1013.9 1013.8 0.0
29/02:30am 14.7 14.6 13.4 92 0.7 ESE 6 9 3 5 1014.2 - 0.0
29/02:00am 14.3 13.9 12.9 91 0.8 ESE 7 9 4 5 1014.5 - 0.0
29/01:30am 14.9 14.7 13.6 92 0.7 E 7 9 4 5 1014.7 - 0.0
29/01:00am 14.8 14.5 13.3 91 0.8 ESE 7 9 4 5 1015.0 - 0.0
29/12:30am 15.3 15.1 13.7 90 0.9 E 7 9 4 5 1015.3 - 0.0
29/12:00am 16.3 16.5 14.3 88 1.1 E 6 7 3 4 1015.6 1015.5 0.0
 
Date/Time
CST
Temp
°C
App
Temp
°C
Dew
Point
Rel
Hum
%
Delta-T
°C
Wind Press
QNH
hPa
Press
MSL
hPa
Rain
since 9 am
mm
Dir
 
Spd
km/h
Gust
km/h
Spd
kts
Gust
kts
28/11:30pm 17.2 17.4 14.8 86 1.4 E 7 7 4 4 1015.8 - 0.0
28/11:00pm 18.1 18.2 15.4 84 1.6 ESE 9 13 5 7 1016.0 - 0.0
28/10:30pm 18.2 18.5 15.1 82 1.8 E 7 9 4 5 1016.1 - 0.0
28/10:00pm 19.4 20.0 15.9 80 2.1 E 7 11 4 6 1016.0 - 0.0
28/09:30pm 19.9 20.2 16.0 78 2.3 E 9 11 5 6 1015.9 - 0.0
28/09:00pm 20.1 20.4 15.9 77 2.5 ESE 9 13 5 7 1015.7 1015.6 0.0
28/08:30pm 20.5 21.1 15.7 74 2.9 ESE 7 11 4 6 1015.9 - 0.0
28/08:00pm 21.2 21.7 15.5 70 3.4 ESE 7 11 4 6 1015.7 - 0.0
28/07:30pm 21.9 22.1 15.7 68 3.7 SE 9 15 5 8 1015.2 - 0.0
28/07:00pm 22.6 22.5 15.0 62 4.5 SE 9 15 5 8 1014.9 - 0.0
28/06:30pm 23.6 23.4 13.5 53 5.9 SE 7 13 4 7 1014.7 - 0.0
28/06:00pm 24.9 23.3 12.8 47 7.0 SE 13 24 7 13 1014.5 1014.4 0.0
28/05:30pm 26.1 24.0 12.5 42 7.9 SE 15 22 8 12 1014.2 - 0.0
28/05:00pm 27.4 25.2 12.2 39 8.8 ESE 15 24 8 13 1013.9 - 0.0
28/04:30pm 27.6 25.0 10.8 35 9.5 ESE 15 24 8 13 1013.9 - 0.0
28/04:00pm 28.3 26.4 13.0 39 9.0 SE 15 30 8 16 1013.7 - 0.0
28/03:30pm 29.6 26.2 11.2 32 10.6 E 20 28 11 15 1013.7 - 0.0
28/03:00pm 29.6 26.2 10.7 31 10.8 ESE 19 28 10 15 1013.8 1013.7 0.0
28/02:30pm 29.2 26.1 10.3 31 10.7 ESE 17 28 9 15 1013.9 - 0.0
28/02:00pm 29.5 25.8 9.6 29 11.2 ESE 19 33 10 18 1014.1 - 0.0
28/01:30pm 29.7 25.8 9.3 28 11.4 E 20 37 11 20 1014.5 - 0.0
28/01:00pm 29.1 26.4 11.6 33 10.1 ESE 17 26 9 14 1014.9 - 0.0
28/12:30pm 29.0 25.8 12.0 35 9.9 ESE 20 30 11 16 1015.4 - 0.0
28/12:00pm 28.5 24.8 11.6 35 9.7 E 22 37 12 20 1015.6 1015.5 0.0
28/11:30am 27.6 23.7 10.8 35 9.5 SE 22 37 12 20 1015.8 - 0.0
28/11:00am 28.1 25.1 12.0 36 9.3 SE 19 35 10 19 1016.0 - 0.0
28/10:30am 27.4 23.7 11.4 37 9.1 ESE 22 44 12 24 1016.3 - 0.0
28/10:00am 27.1 23.9 12.0 39 8.7 SE 20 33 11 18 1016.3 - 0.0
28/09:30am 25.9 22.6 11.6 40 8.1 SE 20 32 11 17 1016.3 - 0.0
28/09:00am 24.8 22.4 13.7 50 6.5 SE 19 33 10 18 1016.2 1016.1 0.0
28/08:30am 23.8 23.3 15.0 57 5.3 SE 11 20 6 11 1015.9 - 0.0
28/08:00am 22.2 21.5 15.5 66 4.0 SE 13 24 7 13 1015.7 - 0.0
28/07:30am 20.0 20.1 16.4 80 2.2 SE 11 19 6 10 1015.3 - 0.0
28/07:29am 19.6 20.0 16.3 81 2.0 SE 9 19 5 10 1015.3 - 0.0
28/07:00am 14.6 14.5 13.8 95 0.4 ESE 7 9 4 5 1015.2 - 0.0
28/06:30am 12.5 11.6 11.2 92 0.7 ESE 7 11 4 6 1015.0 - 0.0
28/06:00am 12.0 11.1 10.6 91 0.7 ESE 6 7 3 4 1014.7 1014.6 0.0
28/05:30am 12.3 12.6 10.9 91 0.7 CALM 0 0 0 0 1014.6 - 0.0
28/05:00am 12.0 11.1 10.6 91 0.7 ESE 6 7 3 4 1014.4 - 0.0
28/04:30am 11.8 12.0 10.4 91 0.7 CALM 0 7 0 4 1014.4 - 0.0
28/04:00am 12.3 12.5 10.5 89 0.9 CALM 0 0 0 0 1014.3 - 0.0
28/03:30am 12.4 12.7 10.8 90 0.8 CALM 0 0 0 0 1014.3 - 0.0
28/03:00am 12.8 13.1 11.0 89 0.9 CALM 0 0 0 0 1014.4 1014.3 0.0
28/02:30am 13.9 14.6 12.3 90 0.9 CALM 0 0 0 0 1014.4 - 0.0
28/02:00am 13.3 13.4 11.4 88 1.0 ESE 2 7 1 4 1014.9 - 0.0
28/01:30am 13.6 12.8 11.8 89 1.0 ESE 7 9 4 5 1015.2 - 0.0
28/01:00am 13.9 13.4 12.1 89 1.0 E 6 7 3 4 1015.7 - 0.0
28/12:30am 14.0 13.5 12.2 89 1.0 ESE 6 7 3 4 1015.8 - 0.0
28/12:00am 14.7 14.4 12.7 88 1.1 E 6 7 3 4 1016.0 1015.9 0.0
 
Date/Time
CST
Temp
°C
App
Temp
°C
Dew
Point
Rel
Hum
%
Delta-T
°C
Wind Press
QNH
hPa
Press
MSL
hPa
Rain
since 9 am
mm
Dir
 
Spd
km/h
Gust
km/h
Spd
kts
Gust
kts
27/11:30pm 15.2 15.4 13.2 88 1.1 E 4 7 2 4 1016.2 - 0.0
27/11:00pm 15.7 15.5 13.5 87 1.2 E 7 7 4 4 1016.3 - 0.0
27/10:36pm 16.1 16.2 13.9 87 1.2 ESE 6 7 3 4 1016.3 - 0.0
27/10:30pm 16.0 16.1 13.8 87 1.2 ESE 6 7 3 4 1016.3 - 0.0
27/10:18pm 16.2 16.3 13.9 86 1.3 ESE 6 6 3 3 1016.3 - 0.0
27/10:00pm 16.7 17.2 14.0 84 1.5 E 4 7 2 4 1016.2 - 0.0
27/09:30pm 17.3 17.6 14.4 83 1.7 ENE 6 9 3 5 1016.3 - 0.0
27/09:00pm 18.0 18.2 14.3 79 2.1 E 6 7 3 4 1016.0 1015.9 0.0
27/08:30pm 18.7 18.9 14.2 75 2.6 ENE 6 7 3 4 1015.8 - 0.0
27/08:00pm 20.1 20.3 14.7 71 3.2 ESE 7 9 4 5 1015.3 - 0.0
27/07:30pm 21.2 21.4 14.8 67 3.8 ESE 7 13 4 7 1014.8 - 0.0
27/07:00pm 21.9 21.6 14.5 63 4.3 SE 9 15 5 8 1014.4 - 0.0
27/06:30pm 22.8 22.4 14.1 58 5.1 SSE 9 17 5 9 1014.1 - 0.0
27/06:00pm 24.2 23.8 14.0 53 6.0 SE 9 15 5 8 1014.0 1013.9 0.0
27/05:30pm 25.5 24.2 13.7 48 6.9 SE 13 24 7 13 1013.8 - 0.0
27/05:00pm 26.2 24.4 13.3 45 7.6 SE 15 24 8 13 1013.7 - 0.0
27/04:30pm 26.4 24.0 12.8 43 7.9 SSE 17 30 9 16 1013.7 - 0.0
27/04:00pm 27.7 25.6 13.6 42 8.4 SE 17 28 9 15 1013.7 - 0.0
27/03:30pm 27.9 25.7 13.4 40 8.6 SE 17 28 9 15 1013.5 - 0.0
27/03:00pm 28.1 24.9 12.0 36 9.3 SE 20 32 11 17 1013.6 1013.5 0.0
27/02:30pm 28.0 24.8 12.0 37 9.3 SE 20 35 11 19 1013.7 - 0.0
27/02:00pm 28.7 25.8 12.2 36 9.6 SSE 19 32 10 17 1013.8 - 0.0
27/01:30pm 28.9 26.0 12.3 36 9.7 SE 19 39 10 21 1014.0 - 0.0
27/01:00pm 29.2 24.0 10.3 31 10.7 E 28 44 15 24 1014.3 - 0.0
27/12:41pm 29.2 24.2 10.8 32 10.5 E 28 46 15 25 1014.5 - 0.0
27/12:30pm 28.5 24.8 10.2 32 10.3 ESE 20 37 11 20 1014.7 - 0.0
27/12:00pm 28.5 24.7 12.4 37 9.4 ESE 24 41 13 22 1014.6 1014.5 0.0
27/11:30am 28.1 24.3 12.4 37 9.1 ESE 24 39 13 21 1015.0 - 0.0
27/11:00am 28.8 25.5 12.7 37 9.5 ESE 22 37 12 20 1015.3 - 0.0
27/10:49am 27.8 22.9 11.4 36 9.4 ESE 28 48 15 26 1015.5 - 0.0
27/10:30am 28.4 25.7 13.5 40 8.8 ESE 20 37 11 20 1015.7 - 0.0
27/10:00am 27.1 23.4 12.7 41 8.4 ESE 24 43 13 23 1015.7 - 0.0
27/09:30am 26.2 23.0 13.0 44 7.7 SE 22 39 12 21 1015.8 - 0.0
27/09:00am 25.4 23.3 13.6 48 6.9 SE 17 32 9 17 1015.6 1015.5 0.0
27/08:30am 23.8 23.6 15.6 60 4.9 SE 11 22 6 12 1015.7 - 0.0
27/08:00am 20.8 21.5 16.2 75 2.8 SE 7 11 4 6 1015.4 - 0.0
27/07:53am 20.2 20.9 16.0 77 2.5 ESE 7 11 4 6 1015.4 - 0.0
27/07:30am 15.2 15.2 14.1 93 0.6 E 7 9 4 5 1015.2 - 0.0
27/07:00am 12.1 12.4 10.8 92 0.7 CALM 0 0 0 0 1014.7 - 0.0
27/06:30am 11.7 10.5 10.3 91 0.7 E 7 9 4 5 1014.4 - 0.0
27/06:00am 11.9 10.8 10.5 91 0.7 E 7 9 4 5 1014.0 1013.9 0.0
27/05:30am 12.0 12.2 10.6 91 0.7 CALM 0 0 0 0 1013.8 - 0.0
27/05:00am 12.6 12.2 11.2 91 0.7 E 4 7 2 4 1013.8 - 0.0
27/04:30am 12.9 13.4 11.5 91 0.7 CALM 0 0 0 0 1013.8 - 0.0
27/04:00am 13.1 13.7 11.8 92 0.7 CALM 0 0 0 0 1013.6 - 0.0
27/03:30am 13.6 14.3 12.2 91 0.8 CALM 0 0 0 0 1013.7 - 0.0
27/03:00am 14.2 15.1 12.8 91 0.8 CALM 0 0 0 0 1013.8 1013.7 0.0
27/02:30am 14.9 15.9 13.3 90 0.9 CALM 0 0 0 0 1014.0 - 0.0
27/02:00am 15.4 16.6 13.9 91 0.8 CALM 0 0 0 0 1014.1 - 0.0
27/01:31am 16.1 17.5 14.5 90 0.9 CALM 0 0 0 0 1014.2 - 0.0
27/01:30am 16.1 17.5 14.5 90 0.9 CALM 0 0 0 0 1014.2 - 0.0
27/01:21am 16.3 17.9 14.8 91 0.9 CALM 0 0 0 0 1014.3 - 0.0
27/01:00am 16.8 18.5 15.3 91 0.9 CALM 0 0 0 0 1014.5 - 0.0
27/12:30am 17.2 19.0 15.4 89 1.1 CALM 0 0 0 0 1014.6 - 0.0
27/12:00am 17.8 18.7 16.0 89 1.1 E 6 6 3 3 1014.9 1014.8 0.0
 
Date/Time
CST
Temp
°C
App
Temp
°C
Dew
Point
Rel
Hum
%
Delta-T
°C
Wind Press
QNH
hPa
Press
MSL
hPa
Rain
since 9 am
mm
Dir
 
Spd
km/h
Gust
km/h
Spd
kts
Gust
kts
26/11:30pm 18.4 20.6 16.4 88 1.2 CALM 0 0 0 0 1015.2 - 0.0
26/11:00pm 19.2 21.4 16.6 85 1.6 CALM 0 0 0 0 1015.3 - 0.0
26/10:30pm 20.9 23.2 17.7 82 2.0 NNE 2 6 1 3 1015.4 - 0.0
26/10:00pm 21.4 22.8 17.8 80 2.2 ESE 7 11 4 6 1015.7 - 0.0
26/09:30pm 21.7 22.7 17.7 78 2.5 ESE 9 13 5 7 1015.7 - 0.0
26/09:00pm 22.0 23.2 17.4 75 2.8 ESE 7 11 4 6 1015.4 1015.3 0.0
26/08:30pm 22.5 23.7 17.4 73 3.1 ESE 7 11 4 6 1015.1 - 0.0
26/08:00pm 23.1 23.5 17.3 70 3.6 ESE 11 17 6 9 1014.9 - 0.0
26/07:30pm 23.6 23.9 17.8 70 3.6 ESE 13 22 7 12 1014.6 - 0.0
26/07:00pm 24.1 23.7 18.1 69 3.8 ESE 17 32 9 17 1014.1 - 0.0
26/06:30pm 24.6 24.3 17.3 64 4.5 ESE 15 26 8 14 1013.7 - 0.0
26/06:00pm 25.5 24.4 17.7 62 4.9 ESE 20 30 11 16 1013.3 1013.2 0.0

Other Formats:

Comma delimited format used in spreadsheet applications
http://www.bom.gov.au/fwo/IDD60801/IDD60801.94153.axf

JavaScript Object Notation format (JSON) in row-major order
http://www.bom.gov.au/fwo/IDD60801/IDD60801.94153.json